Time;durP1;ratioP1;P1;durP2;ratioP2;P2;SDS_P1;SDS_P2;PMS_P1;PMS_P2;Temp;Humidity;BMP_temperature;BMP_pressure;BME280_temperature;BME280_humidity;BME280_pressure;Samples;Min_cycle;Max_cycle;Signal;HPM_P1;HPM_P2
2021/12/05 00:16:52;;;;;;;12.25;4.32;;;4.30;99.90;;;;;;4973983;28;20475;-82
2021/12/05 00:17:54;;;;;;;5.05;1.83;;;4.30;99.90;;;;;;4977310;28;20217;-82
2021/12/05 00:20:50;;;;;;;7.90;3.45;;;4.30;99.90;;;;;;4977545;28;20709;-80
2021/12/05 00:23:20;;;;;;;9.23;3.17;;;4.40;99.90;;;;;;4977237;28;20199;-80
2021/12/05 00:25:51;;;;;;;7.68;3.50;;;4.40;99.90;;;;;;4963972;28;20179;-83
2021/12/05 00:31:14;;;;;;;4.60;2.70;;;4.30;99.90;;;;;;4977205;28;20186;-81
2021/12/05 00:39:32;;;;;;;10.82;3.83;;;4.20;99.90;;;;;;4992192;28;20207;-83
2021/12/05 00:42:07;;;;;;;10.85;2.88;;;4.00;99.90;;;;;;4974391;28;20773;-81
2021/12/05 00:47:34;;;;;;;6.95;1.90;;;4.00;99.90;;;;;;4975199;28;20199;-82
2021/12/05 00:50:50;;;;;;;7.13;2.05;;;3.90;99.90;;;;;;4966508;28;20187;-82
2021/12/05 00:53:32;;;;;;;8.20;4.78;;;3.80;99.90;;;;;;4976115;28;20845;-82
2021/12/05 00:56:03;;;;;;;13.82;2.65;;;3.70;99.90;;;;;;4979204;28;20175;-82
2021/12/05 01:11:59;;;;;;;4.65;1.25;;;4.00;99.90;;;;;;4975922;28;20218;-83
2021/12/05 01:14:32;;;;;;;6.95;2.45;;;4.10;99.90;;;;;;4975803;28;20174;-82
2021/12/05 01:16:59;;;;;;;4.75;1.70;;;4.00;99.90;;;;;;4967689;28;20187;-81
2021/12/05 01:19:26;;;;;;;6.63;2.38;;;3.90;99.90;;;;;;4983042;28;21216;-82
2021/12/05 01:22:02;;;;;;;16.35;2.33;;;3.90;99.90;;;;;;4968632;28;20214;-82
2021/12/05 01:24:48;;;;;;;8.60;1.80;;;4.00;99.90;;;;;;4951315;28;20278;-81
2021/12/05 01:30:08;;;;;;;9.80;2.97;;;4.00;99.90;;;;;;4977709;28;20190;-82
2021/12/05 01:33:03;;;;;;;17.85;2.53;;;3.90;99.90;;;;;;4960889;28;20207;-83
2021/12/05 01:38:26;;;;;;;6.80;1.60;;;3.70;99.90;;;;;;4976261;28;20207;-83
2021/12/05 01:41:04;;;;;;;3.80;1.30;;;3.80;99.90;;;;;;4960149;28;20720;-82
2021/12/05 01:55:20;;;;;;;8.40;1.17;;;3.60;99.90;;;;;;4944775;28;20224;-80
2021/12/05 02:00:42;;;;;;;4.53;1.10;;;3.60;99.90;;;;;;4972696;28;20199;-81
2021/12/05 02:29:23;;;;;;;10.27;3.05;;;3.70;99.90;;;;;;4978132;28;20201;-82
2021/12/05 02:30:55;;;;;;;9.55;1.23;;;3.80;99.90;;;;;;4980787;28;20293;-82
2021/12/05 02:43:36;;;;;;;3.77;0.87;;;3.70;99.90;;;;;;4983581;28;20730;-82
2021/12/05 02:46:04;;;;;;;1.88;0.80;;;3.60;99.90;;;;;;4985360;28;20211;-82
2021/12/05 02:48:34;;;;;;;2.60;1.10;;;3.40;99.90;;;;;;4973428;28;20184;-82
2021/12/05 02:51:03;;;;;;;5.03;1.38;;;3.30;99.90;;;;;;4966395;28;20183;-83
2021/12/05 02:53:46;;;;;;;1.95;1.10;;;3.20;99.90;;;;;;4978074;28;20243;-82
2021/12/05 02:56:13;;;;;;;2.80;1.83;;;3.20;99.90;;;;;;4957014;28;20834;-82
2021/12/05 02:58:50;;;;;;;0.70;0.70;;;3.10;99.90;;;;;;4974443;28;20217;-84
2021/12/05 03:01:27;;;;;;;2.53;0.98;;;3.10;99.90;;;;;;4956030;28;20226;-81
2021/12/05 03:03:53;;;;;;;4.93;1.33;;;3.00;99.90;;;;;;4958153;28;20195;-82
2021/12/05 03:06:22;;;;;;;4.25;2.15;;;2.90;99.90;;;;;;4975401;28;20781;-78
2021/12/05 03:08:57;;;;;;;1.13;0.93;;;2.80;99.90;;;;;;4976673;28;20187;-82
2021/12/05 03:11:25;;;;;;;3.60;1.60;;;2.70;99.90;;;;;;4972612;28;21225;-79
2021/12/05 03:13:51;;;;;;;11.48;1.50;;;2.70;99.90;;;;;;4986359;28;20750;-84
2021/12/05 03:16:19;;;;;;;5.57;1.60;;;2.60;99.90;;;;;;4986636;28;20198;-82
2021/12/05 03:18:45;;;;;;;3.85;1.70;;;2.80;99.90;;;;;;4957348;28;20494;-81
2021/12/05 03:21:11;;;;;;;3.17;1.23;;;2.70;99.90;;;;;;4983005;28;20180;-78
2021/12/05 03:23:46;;;;;;;19.27;3.33;;;2.70;99.90;;;;;;4964779;28;20217;-82
2021/12/05 03:26:18;;;;;;;2.35;1.40;;;2.60;99.90;;;;;;4965367;28;20191;-83
2021/12/05 03:28:44;;;;;;;12.60;2.47;;;2.70;99.90;;;;;;4996341;28;20190;-79
2021/12/05 03:31:10;;;;;;;5.68;2.40;;;2.70;99.90;;;;;;4969516;28;20237;-83
2021/12/05 03:33:37;;;;;;;5.47;2.38;;;2.60;99.90;;;;;;4959816;28;22317;-82
2021/12/05 03:36:05;;;;;;;9.00;1.80;;;2.60;99.90;;;;;;4976476;28;20199;-81
2021/12/05 03:38:32;;;;;;;2.55;1.58;;;2.60;99.90;;;;;;4957419;28;20257;-82
2021/12/05 03:40:57;;;;;;;3.60;1.55;;;2.60;99.90;;;;;;4983642;28;20179;-81
2021/12/05 03:43:23;;;;;;;5.03;3.10;;;2.60;99.90;;;;;;5004308;28;21320;-84
2021/12/05 03:45:53;;;;;;;5.33;2.97;;;2.70;99.90;;;;;;4983339;28;20803;-84
2021/12/05 03:48:20;;;;;;;2.22;1.33;;;2.70;99.90;;;;;;4954584;28;20183;-80
2021/12/05 03:50:47;;;;;;;3.47;1.30;;;2.70;99.90;;;;;;4988691;28;20769;-81
2021/12/05 03:53:14;;;;;;;3.22;1.40;;;2.70;99.90;;;;;;4956468;28;20612;-83
2021/12/05 03:55:42;;;;;;;6.93;1.40;;;2.60;99.90;;;;;;4960952;28;20749;-79
2021/12/05 03:58:09;;;;;;;6.35;3.17;;;2.60;99.90;;;;;;4968362;28;20210;-81
2021/12/05 04:00:38;;;;;;;4.45;1.45;;;2.70;99.90;;;;;;4983726;28;20230;-79
2021/12/05 04:03:08;;;;;;;5.25;1.50;;;2.70;99.90;;;;;;4980095;28;20203;-81
2021/12/05 04:05:34;;;;;;;7.65;1.73;;;2.80;99.90;;;;;;4973476;28;20673;-84
2021/12/05 04:08:02;;;;;;;4.07;1.38;;;2.80;99.90;;;;;;4976887;28;20263;-81
2021/12/05 04:10:28;;;;;;;4.60;1.27;;;2.80;99.90;;;;;;4959863;28;20271;-82
2021/12/05 04:12:55;;;;;;;5.95;1.70;;;2.90;99.90;;;;;;4978121;28;20289;-82
2021/12/05 04:15:21;;;;;;;4.53;2.10;;;2.90;99.90;;;;;;4960131;28;20674;-79
2021/12/05 04:17:47;;;;;;;7.57;3.67;;;2.90;99.90;;;;;;4983808;28;20297;-81
2021/12/05 04:20:15;;;;;;;2.50;1.33;;;2.90;99.90;;;;;;4972242;28;21089;-83
2021/12/05 04:22:41;;;;;;;5.78;2.47;;;2.80;99.90;;;;;;4974564;28;20539;-79
2021/12/05 04:25:10;;;;;;;3.83;1.60;;;2.80;99.90;;;;;;4957552;28;20194;-81
2021/12/05 04:27:41;;;;;;;2.10;1.02;;;2.90;99.90;;;;;;4993710;28;20189;-79
2021/12/05 04:30:08;;;;;;;4.15;1.65;;;2.90;99.90;;;;;;4974620;28;20279;-82
2021/12/05 04:32:34;;;;;;;9.68;1.52;;;2.90;99.90;;;;;;4976690;28;20245;-80
2021/12/05 04:35:00;;;;;;;5.40;1.30;;;2.90;99.90;;;;;;4960198;28;20597;-83
2021/12/05 04:37:26;;;;;;;2.17;1.80;;;2.90;99.90;;;;;;4975617;28;20434;-80
2021/12/05 04:39:52;;;;;;;5.28;1.30;;;2.80;99.90;;;;;;4971271;28;20640;-82
2021/12/05 04:42:18;;;;;;;10.00;1.70;;;2.70;99.90;;;;;;4982278;28;20197;-81
2021/12/05 04:44:44;;;;;;;5.10;1.43;;;2.60;99.90;;;;;;4979509;28;20187;-84
2021/12/05 04:47:10;;;;;;;4.15;1.15;;;2.60;99.90;;;;;;4956392;28;20430;-80
2021/12/05 04:49:38;;;;;;;5.83;1.23;;;2.60;99.90;;;;;;4958886;28;20183;-79
2021/12/05 04:52:04;;;;;;;2.47;0.95;;;2.70;99.90;;;;;;4960692;28;20445;-82
2021/12/05 04:54:30;;;;;;;6.73;1.40;;;2.70;99.90;;;;;;4975502;28;20178;-80
2021/12/05 04:56:55;;;;;;;12.40;1.53;;;2.60;99.90;;;;;;4972939;28;20467;-82
2021/12/05 04:59:24;;;;;;;4.03;1.70;;;2.60;99.90;;;;;;4966939;28;20215;-82
2021/12/05 05:01:52;;;;;;;3.25;1.35;;;2.60;99.90;;;;;;4977607;28;20717;-81
2021/12/05 05:04:28;;;;;;;29.08;1.90;;;2.60;99.90;;;;;;4975250;28;20195;-83
2021/12/05 05:07:02;;;;;;;2.15;1.40;;;2.50;99.90;;;;;;4975155;28;21545;-82
2021/12/05 05:09:28;;;;;;;3.53;1.27;;;2.50;99.90;;;;;;4972103;28;20191;-82
2021/12/05 05:11:54;;;;;;;2.03;0.67;;;2.50;99.90;;;;;;4976732;28;20187;-81
2021/12/05 05:14:19;;;;;;;7.27;1.77;;;2.60;99.90;;;;;;4990922;28;20484;-81
2021/12/05 05:16:47;;;;;;;3.60;1.53;;;2.60;99.90;;;;;;4988657;28;20824;-83
2021/12/05 05:19:15;;;;;;;3.70;0.85;;;2.70;99.90;;;;;;4968338;28;20254;-80
2021/12/05 05:21:49;;;;;;;1.00;0.90;;;2.80;99.90;;;;;;4969186;28;20267;-82
2021/12/05 05:25:00;;;;;;;3.85;1.10;;;2.80;99.90;;;;;;4973699;28;20199;-85
2021/12/05 05:43:28;;;;;;;2.55;1.55;;;2.80;99.90;;;;;;4974132;28;20277;-82
2021/12/05 05:46:05;;;;;;;2.05;1.25;;;2.70;99.90;;;;;;4950981;28;20179;-83
2021/12/05 05:48:35;;;;;;;2.08;1.80;;;2.70;99.90;;;;;;4973436;28;20206;-82
2021/12/05 05:51:05;;;;;;;2.05;1.10;;;2.60;99.90;;;;;;4958913;28;20179;-81
2021/12/05 05:53:31;;;;;;;1.45;1.08;;;2.60;99.90;;;;;;4972860;28;20223;-84
2021/12/05 05:55:57;;;;;;;2.53;1.00;;;2.50;99.90;;;;;;4958489;28;20175;-81
2021/12/05 05:58:36;;;;;;;2.65;1.17;;;2.50;99.90;;;;;;4950761;28;20254;-80
2021/12/05 06:01:04;;;;;;;1.48;0.82;;;2.50;99.90;;;;;;4969240;28;20167;-82
2021/12/05 06:03:31;;;;;;;3.35;1.25;;;2.60;99.90;;;;;;4954395;28;20210;-81
2021/12/05 06:06:09;;;;;;;7.90;1.27;;;2.60;99.90;;;;;;4955079;28;20183;-82
2021/12/05 06:08:37;;;;;;;5.60;1.13;;;2.60;99.90;;;;;;4982169;28;20179;-83
2021/12/05 06:11:05;;;;;;;2.83;1.10;;;2.60;99.90;;;;;;4973136;28;20260;-83
2021/12/05 06:13:32;;;;;;;1.60;0.98;;;2.60;99.90;;;;;;4974655;28;20203;-83
2021/12/05 06:15:58;;;;;;;3.85;1.10;;;2.60;99.90;;;;;;4971421;28;20242;-81
2021/12/05 06:18:24;;;;;;;8.90;1.23;;;2.60;99.90;;;;;;4973386;28;20219;-83
2021/12/05 06:20:51;;;;;;;4.50;1.20;;;2.60;99.90;;;;;;4978568;28;20997;-82
2021/12/05 06:23:17;;;;;;;7.75;1.85;;;2.50;99.90;;;;;;4979016;28;20195;-80
2021/12/05 06:25:45;;;;;;;4.27;1.23;;;2.50;99.90;;;;;;4974097;28;20191;-82
2021/12/05 06:28:14;;;;;;;1.75;0.98;;;2.40;99.90;;;;;;4955517;28;20194;-80
2021/12/05 06:46:28;;;;;;;2.05;1.27;;;2.30;99.90;;;;;;4975844;28;20180;-79
2021/12/05 06:48:54;;;;;;;5.72;2.45;;;2.20;99.90;;;;;;4980427;28;20186;-83
2021/12/05 06:51:27;;;;;;;3.83;2.73;;;2.20;99.90;;;;;;4974149;28;20195;-81
2021/12/05 06:53:54;;;;;;;3.00;2.55;;;2.20;99.90;;;;;;4973965;28;20214;-81
2021/12/05 06:56:20;;;;;;;3.42;1.42;;;2.10;99.90;;;;;;4957030;28;20188;-81
2021/12/05 06:58:45;;;;;;;51.55;25.73;;;2.00;99.90;;;;;;4959784;28;20198;-82
2021/12/05 07:01:12;;;;;;;3.88;1.80;;;1.90;99.90;;;;;;4974740;28;20204;-81
2021/12/05 07:03:42;;;;;;;2.77;1.47;;;1.90;99.90;;;;;;4976029;28;20200;-79
2021/12/05 07:06:12;;;;;;;3.67;1.90;;;1.90;99.90;;;;;;4975309;28;20186;-83
2021/12/05 07:08:42;;;;;;;2.80;1.50;;;1.90;99.90;;;;;;4975228;28;20183;-83
2021/12/05 07:16:29;;;;;;;2.35;1.20;;;1.70;99.90;;;;;;4969927;28;20201;-82
2021/12/05 07:21:57;;;;;;;2.97;1.60;;;1.80;99.90;;;;;;4930368;28;20270;-82
2021/12/05 07:24:42;;;;;;;5.55;1.85;;;1.90;99.90;;;;;;4965726;28;20559;-82
2021/12/05 07:40:49;;;;;;;9.13;1.42;;;2.10;99.90;;;;;;4971767;28;20202;-83
2021/12/05 07:43:16;;;;;;;4.77;2.37;;;2.20;99.90;;;;;;4978148;28;20200;-82
2021/12/05 07:45:48;;;;;;;1.98;1.52;;;2.10;99.90;;;;;;4971800;28;20194;-82
2021/12/05 07:48:20;;;;;;;14.15;7.57;;;2.10;99.90;;;;;;4975692;28;21514;-82
2021/12/05 07:51:21;;;;;;;2.80;1.13;;;2.10;99.90;;;;;;4973996;28;20180;-79
2021/12/05 07:53:52;;;;;;;10.80;5.95;;;2.10;99.90;;;;;;4974434;28;20899;-83
2021/12/05 07:56:30;;;;;;;11.60;5.95;;;2.10;99.90;;;;;;4959437;28;20214;-82
2021/12/05 07:59:08;;;;;;;20.08;9.50;;;2.10;99.90;;;;;;4982524;28;20282;-82
2021/12/05 08:15:23;;;;;;;17.77;11.38;;;2.10;99.90;;;;;;4983081;28;20546;-82
2021/12/05 08:17:54;;;;;;;11.98;7.80;;;2.10;99.90;;;;;;4972882;28;20237;-82
2021/12/05 08:20:31;;;;;;;25.23;16.40;;;2.20;99.90;;;;;;4976865;28;20179;-81
2021/12/05 08:22:57;;;;;;;9.20;6.72;;;2.20;99.90;;;;;;4980964;28;20215;-83
2021/12/05 08:25:27;;;;;;;5.20;3.50;;;2.40;99.90;;;;;;4976689;28;20928;-83
2021/12/05 08:27:59;;;;;;;1.80;1.70;;;2.60;99.90;;;;;;4961963;28;20635;-84
2021/12/05 08:30:33;;;;;;;2.40;1.60;;;2.60;99.90;;;;;;4984620;28;20187;-82
2021/12/05 08:36:03;;;;;;;1.00;0.82;;;3.70;99.90;;;;;;4992248;28;20175;-78
2021/12/05 09:22:10;;;;;;;2.05;1.48;;;6.20;99.90;;;;;;4985219;28;20206;-83
2021/12/05 10:10:27;;;;;;;5.30;1.35;;;4.60;99.90;;;;;;4989570;28;20239;-82
2021/12/05 10:37:37;;;;;;;5.25;2.33;;;4.60;99.90;;;;;;4981254;28;20964;-83
2021/12/05 10:40:13;;;;;;;2.28;1.33;;;4.70;99.90;;;;;;4984041;28;20230;-83
2021/12/05 10:42:57;;;;;;;2.55;1.80;;;4.60;99.90;;;;;;4981339;28;20183;-83
2021/12/05 10:45:34;;;;;;;4.80;1.60;;;4.60;99.90;;;;;;4986482;28;20266;-83
2021/12/05 10:48:05;;;;;;;2.28;1.10;;;4.60;99.90;;;;;;4980196;28;20178;-83
2021/12/05 10:50:34;;;;;;;5.50;1.48;;;4.70;99.90;;;;;;4980864;28;20222;-83
2021/12/05 10:53:29;;;;;;;4.38;1.80;;;4.80;99.90;;;;;;4962075;28;20222;-83
2021/12/05 10:56:12;;;;;;;1.70;1.58;;;4.90;99.90;;;;;;4978643;28;20266;-83
2021/12/05 10:58:47;;;;;;;7.88;1.90;;;5.10;99.90;;;;;;4977442;28;20589;-81
2021/12/05 11:01:15;;;;;;;5.57;1.60;;;5.20;99.90;;;;;;4979801;28;20179;-82
2021/12/05 11:03:42;;;;;;;4.20;1.08;;;5.20;99.90;;;;;;4978127;28;20297;-81
2021/12/05 11:06:17;;;;;;;3.60;2.15;;;5.30;99.90;;;;;;4964969;28;20251;-81
2021/12/05 11:08:43;;;;;;;8.63;1.27;;;5.60;99.90;;;;;;4979546;28;20263;-81
2021/12/05 11:11:14;;;;;;;5.87;2.17;;;5.90;99.90;;;;;;4966471;28;20216;-81
2021/12/05 11:13:43;;;;;;;4.05;1.33;;;6.10;99.90;;;;;;4963744;28;20957;-82
2021/12/05 11:16:31;;;;;;;0.95;0.80;;;6.20;99.90;;;;;;4978084;28;20187;-84
2021/12/05 11:18:56;;;;;;;6.40;1.33;;;6.50;99.90;;;;;;4980346;28;20210;-81
2021/12/05 11:21:35;;;;;;;1.10;0.90;;;6.60;99.90;;;;;;4975494;28;20179;-80
2021/12/05 11:24:04;;;;;;;4.03;1.48;;;6.30;99.90;;;;;;4982571;28;20249;-81
2021/12/05 11:26:30;;;;;;;2.05;1.85;;;6.30;99.90;;;;;;4981652;28;20189;-81
2021/12/05 11:28:56;;;;;;;2.60;1.42;;;6.50;99.90;;;;;;4981431;28;20249;-80
2021/12/05 11:31:27;;;;;;;2.55;1.30;;;6.70;99.90;;;;;;4977068;28;21256;-81
2021/12/05 11:33:56;;;;;;;5.93;2.45;;;6.90;99.90;;;;;;4963615;28;20230;-82
2021/12/05 11:36:28;;;;;;;4.95;2.08;;;7.30;99.90;;;;;;4979831;28;21087;-81
2021/12/05 11:38:53;;;;;;;1.50;1.05;;;7.70;99.90;;;;;;4965596;28;20200;-81
2021/12/05 11:41:20;;;;;;;5.53;1.40;;;8.30;99.90;;;;;;4967384;28;20183;-81
2021/12/05 11:43:52;;;;;;;1.90;1.10;;;8.30;99.90;;;;;;4985261;28;20214;-81
2021/12/05 11:46:31;;;;;;;2.17;1.40;;;8.30;99.90;;;;;;4988867;28;20202;-81
2021/12/05 11:49:02;;;;;;;2.25;0.95;;;8.20;99.90;;;;;;4985643;28;20938;-83
2021/12/05 11:51:38;;;;;;;2.72;1.27;;;8.50;99.90;;;;;;4964993;28;20440;-83
2021/12/05 11:54:22;;;;;;;2.10;1.25;;;8.50;99.90;;;;;;4960622;28;20413;-82
2021/12/05 11:56:51;;;;;;;4.63;1.20;;;8.40;99.90;;;;;;4987310;28;20183;-81
2021/12/05 11:59:24;;;;;;;3.80;1.40;;;8.00;99.90;;;;;;4989534;28;20262;-81
2021/12/05 12:02:01;;;;;;;3.58;1.35;;;7.80;99.90;;;;;;4970449;28;20183;-81
2021/12/05 12:05:07;;;;;;;3.60;1.08;;;7.50;99.90;;;;;;4988962;28;20191;-81
2021/12/05 12:07:36;;;;;;;6.80;1.50;;;7.60;99.90;;;;;;4977678;28;20199;-83
2021/12/05 12:10:09;;;;;;;2.75;1.48;;;7.70;99.90;;;;;;4988861;28;20749;-82
2021/12/05 12:12:35;;;;;;;2.40;1.40;;;7.90;99.90;;;;;;4971796;28;20210;-81
2021/12/05 12:15:02;;;;;;;1.10;1.00;;;7.90;99.90;;;;;;4989652;28;20274;-81
2021/12/05 12:17:28;;;;;;;1.55;0.95;;;7.70;99.90;;;;;;4990714;28;20217;-82
2021/12/05 12:19:55;;;;;;;3.57;1.63;;;7.60;99.90;;;;;;4986962;28;20257;-81
2021/12/05 12:22:25;;;;;;;1.50;1.27;;;7.70;99.90;;;;;;4990187;28;20183;-81
2021/12/05 12:24:54;;;;;;;9.20;1.63;;;7.70;99.90;;;;;;4989349;28;20237;-80
2021/12/05 12:27:20;;;;;;;3.60;1.60;;;7.50;99.90;;;;;;4992267;28;20180;-82
2021/12/05 12:29:46;;;;;;;2.00;1.33;;;;;;;;;;4989408;28;20183;-81
2021/12/05 12:32:16;;;;;;;3.25;1.58;;;7.70;99.90;;;;;;4989561;28;20175;-81
2021/12/05 12:34:43;;;;;;;6.75;1.10;;;7.60;99.90;;;;;;4989376;28;20214;-81
2021/12/05 12:37:10;;;;;;;2.22;1.30;;;7.60;99.90;;;;;;4989802;28;20199;-81
2021/12/05 12:39:48;;;;;;;2.72;1.30;;;7.60;99.90;;;;;;4986888;28;20297;-81
2021/12/05 12:42:23;;;;;;;1.75;0.98;;;7.50;99.90;;;;;;4989331;28;20205;-82
2021/12/05 12:45:04;;;;;;;3.17;1.33;;;7.30;99.90;;;;;;4976923;28;20231;-81
2021/12/05 12:47:42;;;;;;;2.45;1.33;;;7.40;99.90;;;;;;4989206;28;20244;-81
2021/12/05 12:50:19;;;;;;;3.38;1.42;;;7.30;99.90;;;;;;4977328;28;20194;-81
2021/12/05 12:53:01;;;;;;;14.88;7.72;;;7.30;99.90;;;;;;4989027;28;20183;-81
2021/12/05 12:55:34;;;;;;;2.55;1.40;;;7.20;99.90;;;;;;4987160;28;20271;-81
2021/12/05 12:58:04;;;;;;;19.45;9.18;;;7.00;99.90;;;;;;4974079;28;20648;-81
2021/12/05 13:00:32;;;;;;;9.38;5.05;;;6.80;99.90;;;;;;4990627;28;20159;-82
2021/12/05 13:03:01;;;;;;;4.43;2.08;;;6.80;99.90;;;;;;4971945;28;20462;-81
2021/12/05 13:11:00;;;;;;;2.20;1.10;;;6.40;99.90;;;;;;4988415;28;20167;-81
2021/12/05 13:13:28;;;;;;;1.70;1.25;;;6.20;99.90;;;;;;4987551;28;20207;-82
2021/12/05 13:16:18;;;;;;;3.03;1.08;;;6.10;99.90;;;;;;4988863;28;20189;-81
2021/12/05 13:18:47;;;;;;;2.42;1.20;;;6.00;99.90;;;;;;4988556;28;20209;-81
2021/12/05 13:21:36;;;;;;;2.58;1.38;;;6.10;99.90;;;;;;4988235;28;20654;-81
2021/12/05 13:24:23;;;;;;;13.70;8.35;;;6.10;99.90;;;;;;4986845;28;21363;-82
2021/12/05 13:26:50;;;;;;;10.60;7.60;;;6.30;99.90;;;;;;4971648;28;20183;-83
2021/12/05 13:29:25;;;;;;;13.10;5.38;;;6.50;99.90;;;;;;4989257;28;20187;-82
2021/12/05 13:31:54;;;;;;;13.43;7.35;;;6.60;99.90;;;;;;4971558;28;20205;-83
2021/12/05 13:34:24;;;;;;;16.40;9.77;;;6.60;99.90;;;;;;4989128;28;20203;-82
2021/12/05 13:37:05;;;;;;;23.77;13.57;;;6.50;99.90;;;;;;4972377;28;20172;-82
2021/12/05 13:39:43;;;;;;;6.68;2.50;;;6.50;99.90;;;;;;4967618;28;20268;-81
2021/12/05 13:42:24;;;;;;;4.32;1.83;;;6.60;99.90;;;;;;4985361;28;20189;-82
2021/12/05 13:44:59;;;;;;;3.63;1.50;;;6.60;99.90;;;;;;4982228;28;20305;-81
2021/12/05 13:47:37;;;;;;;1.95;1.10;;;6.60;99.90;;;;;;4982442;28;20187;-81
2021/12/05 13:50:18;;;;;;;3.38;2.00;;;6.50;99.90;;;;;;4981628;28;20179;-80
2021/12/05 13:52:53;;;;;;;3.00;1.60;;;6.60;99.90;;;;;;4982989;28;20553;-81
2021/12/05 13:55:39;;;;;;;3.60;1.30;;;6.60;99.90;;;;;;4985992;28;20186;-81
2021/12/05 13:58:40;;;;;;;9.27;1.20;;;6.60;99.90;;;;;;4983988;28;20203;-81
2021/12/05 14:01:28;;;;;;;3.38;1.17;;;6.50;99.90;;;;;;4978851;28;20202;-81
2021/12/05 14:04:15;;;;;;;6.30;1.10;;;6.40;99.90;;;;;;4984212;28;20750;-81
2021/12/05 14:07:07;;;;;;;3.10;1.40;;;6.50;99.90;;;;;;4987269;28;20195;-81
2021/12/05 14:09:39;;;;;;;12.23;2.45;;;6.60;99.90;;;;;;4973651;28;20179;-81
2021/12/05 14:12:17;;;;;;;3.83;2.00;;;6.80;99.90;;;;;;4983365;28;20570;-83
2021/12/05 14:14:51;;;;;;;4.18;2.72;;;6.80;99.90;;;;;;4968530;28;20224;-81
2021/12/05 14:17:21;;;;;;;3.20;2.08;;;6.80;99.90;;;;;;4967045;28;20282;-84
2021/12/05 14:20:03;;;;;;;4.47;2.70;;;7.00;99.90;;;;;;4973093;28;20215;-83
2021/12/05 14:22:33;;;;;;;2.70;1.75;;;7.30;99.90;;;;;;4985604;28;20179;-81
2021/12/05 14:25:05;;;;;;;2.55;1.52;;;6.90;99.90;;;;;;4978119;28;20207;-81
2021/12/05 14:27:34;;;;;;;3.13;1.98;;;7.10;99.90;;;;;;4980424;28;20728;-81
2021/12/05 14:30:00;;;;;;;1.60;1.27;;;;;;;;;;4981257;28;20671;-81
2021/12/05 14:32:31;;;;;;;1.60;0.93;;;7.20;99.90;;;;;;4985828;28;20194;-81
2021/12/05 14:35:09;;;;;;;5.65;1.58;;;7.10;99.90;;;;;;4983535;28;20211;-81
2021/12/05 14:37:37;;;;;;;4.20;1.60;;;7.00;99.90;;;;;;4982458;28;20175;-81
2021/12/05 14:40:06;;;;;;;3.35;1.10;;;6.80;99.90;;;;;;4984837;28;20241;-80
2021/12/05 14:42:35;;;;;;;2.60;1.42;;;6.60;99.90;;;;;;4985566;28;20179;-81
2021/12/05 14:45:11;;;;;;;2.60;1.65;;;6.50;99.90;;;;;;4984385;28;20579;-80
2021/12/05 14:47:37;;;;;;;2.67;1.70;;;6.40;99.90;;;;;;4984993;28;20182;-81
2021/12/05 14:50:12;;;;;;;4.23;2.40;;;6.30;99.90;;;;;;4983584;28;20242;-80
2021/12/05 14:52:41;;;;;;;3.13;2.33;;;6.10;99.90;;;;;;4985007;28;20201;-80
2021/12/05 14:55:10;;;;;;;5.88;1.83;;;5.90;99.90;;;;;;4981848;28;20199;-80
2021/12/05 14:57:42;;;;;;;6.93;2.33;;;5.70;99.90;;;;;;4985076;28;20215;-81
2021/12/05 15:00:17;;;;;;;6.72;2.15;;;5.60;99.90;;;;;;4983247;28;20207;-80
2021/12/05 15:02:43;;;;;;;3.85;2.30;;;5.40;99.90;;;;;;4980934;28;20297;-81
2021/12/05 15:05:11;;;;;;;7.45;2.55;;;5.40;99.90;;;;;;4982784;28;20298;-81
2021/12/05 15:07:37;;;;;;;3.20;2.30;;;5.20;99.90;;;;;;4982978;28;20198;-81
2021/12/05 15:10:04;;;;;;;5.20;3.63;;;5.10;99.90;;;;;;4985277;28;20183;-81
2021/12/05 15:12:33;;;;;;;5.90;2.50;;;4.90;99.90;;;;;;4982801;28;20218;-81
2021/12/05 15:15:02;;;;;;;10.88;6.40;;;4.70;99.90;;;;;;4983719;28;20234;-81
2021/12/05 15:17:30;;;;;;;15.82;4.45;;;4.50;99.90;;;;;;4983361;28;20191;-81
2021/12/05 15:20:05;;;;;;;7.85;5.18;;;4.50;99.90;;;;;;4988694;28;20202;-81
2021/12/05 15:22:31;;;;;;;3.95;3.47;;;4.30;99.90;;;;;;4987141;28;20175;-80
2021/12/05 15:25:00;;;;;;;5.57;3.10;;;4.20;99.90;;;;;;4971271;28;20574;-81
2021/12/05 15:27:27;;;;;;;5.15;2.92;;;4.10;99.90;;;;;;4986396;28;20289;-81
2021/12/05 15:29:56;;;;;;;5.20;3.83;;;3.90;99.90;;;;;;4988884;28;20312;-81
2021/12/05 15:32:28;;;;;;;7.13;4.00;;;3.90;99.90;;;;;;4970369;28;20182;-81
2021/12/05 15:35:00;;;;;;;5.57;2.40;;;3.80;99.90;;;;;;4971338;28;20207;-80
2021/12/05 15:37:25;;;;;;;1.75;1.42;;;3.50;99.90;;;;;;4987449;28;20184;-80
2021/12/05 15:39:54;;;;;;;4.70;2.17;;;3.20;99.90;;;;;;4971070;28;20218;-81
2021/12/05 15:42:26;;;;;;;4.22;2.60;;;3.00;99.90;;;;;;4985125;28;20187;-81
2021/12/05 15:44:54;;;;;;;5.28;2.35;;;2.90;99.90;;;;;;4982944;28;20203;-80
2021/12/05 15:47:22;;;;;;;6.57;4.40;;;2.80;99.90;;;;;;4986295;28;20664;-81
2021/12/05 15:49:59;;;;;;;42.05;19.30;;;2.80;99.90;;;;;;4983034;28;20183;-81
2021/12/05 15:52:42;;;;;;;6.80;3.95;;;2.80;99.90;;;;;;4983743;28;20179;-81
2021/12/05 15:55:33;;;;;;;6.60;3.15;;;2.60;99.90;;;;;;4967186;28;20195;-80
2021/12/05 15:58:20;;;;;;;12.75;3.42;;;2.50;99.90;;;;;;4978727;28;20205;-80
2021/12/05 16:00:54;;;;;;;9.35;4.25;;;2.40;99.90;;;;;;4989217;28;20282;-80
2021/12/05 16:03:26;;;;;;;2.78;1.38;;;2.30;99.90;;;;;;4985006;28;20803;-80
2021/12/05 16:05:58;;;;;;;4.18;1.70;;;2.30;99.90;;;;;;4987662;28;22600;-80
2021/12/05 16:08:28;;;;;;;6.80;3.67;;;2.20;99.90;;;;;;4986182;28;20191;-80
2021/12/05 16:10:58;;;;;;;8.13;5.03;;;2.10;99.90;;;;;;4982404;28;20326;-81
2021/12/05 16:13:32;;;;;;;9.18;4.43;;;2.00;99.90;;;;;;4985009;28;20203;-80
2021/12/05 16:16:17;;;;;;;9.68;5.15;;;1.90;99.90;;;;;;4969139;28;20189;-80
2021/12/05 16:18:46;;;;;;;2.13;1.35;;;1.80;99.90;;;;;;4982290;28;20203;-80
2021/12/05 16:21:22;;;;;;;3.53;1.73;;;1.70;99.90;;;;;;4987104;28;20179;-80
2021/12/05 16:23:50;;;;;;;5.28;2.45;;;1.40;99.90;;;;;;4985068;28;20206;-81
2021/12/05 16:26:23;;;;;;;8.38;4.63;;;1.30;99.90;;;;;;4984946;28;20179;-81
2021/12/05 16:29:15;;;;;;;10.65;3.88;;;1.30;99.90;;;;;;4990349;28;20239;-82
2021/12/05 16:31:44;;;;;;;4.85;1.20;;;1.40;99.90;;;;;;4985430;28;20269;-82
2021/12/05 16:34:31;;;;;;;1.42;1.10;;;1.50;99.90;;;;;;4984479;28;20214;-81
2021/12/05 16:37:07;;;;;;;1.52;1.27;;;1.40;99.90;;;;;;4974438;28;20176;-81
2021/12/05 16:39:34;;;;;;;5.60;3.15;;;1.30;99.90;;;;;;4987999;28;20648;-81
2021/12/05 16:42:05;;;;;;;6.90;3.55;;;1.20;99.90;;;;;;4985393;28;20180;-81
2021/12/05 16:44:38;;;;;;;2.88;2.45;;;1.20;99.90;;;;;;4985349;28;20650;-81
2021/12/05 16:47:16;;;;;;;8.13;4.65;;;1.20;99.90;;;;;;4986089;28;20168;-81
2021/12/05 16:49:45;;;;;;;18.73;9.85;;;1.30;99.90;;;;;;4986204;28;20183;-81
2021/12/05 16:52:50;;;;;;;10.63;5.38;;;1.40;99.90;;;;;;4979347;28;20199;-81
2021/12/05 16:55:26;;;;;;;8.38;4.57;;;1.40;99.90;;;;;;4970014;28;20246;-81
2021/12/05 17:00:30;;;;;;;15.57;8.75;;;1.40;99.90;;;;;;4984187;28;20171;-81
2021/12/05 17:02:59;;;;;;;6.57;2.97;;;1.40;99.90;;;;;;4983501;28;20187;-81
2021/12/05 17:05:44;;;;;;;3.75;1.75;;;1.30;99.90;;;;;;4988505;28;20396;-81
2021/12/05 17:08:14;;;;;;;6.90;2.03;;;1.30;99.90;;;;;;4985034;28;20175;-81
2021/12/05 17:10:48;;;;;;;8.70;1.65;;;1.30;99.90;;;;;;4983484;28;20182;-81
2021/12/05 17:13:22;;;;;;;4.10;0.82;;;1.20;99.90;;;;;;4979878;28;20207;-81
2021/12/05 17:15:59;;;;;;;2.45;1.60;;;1.10;99.90;;;;;;4986023;28;20774;-81
2021/12/05 17:18:30;;;;;;;6.97;4.20;;;0.90;99.90;;;;;;4986303;28;20207;-82
2021/12/05 17:21:07;;;;;;;4.18;3.78;;;0.90;99.90;;;;;;4987724;28;20234;-82
2021/12/05 17:23:40;;;;;;;5.13;2.80;;;0.90;99.90;;;;;;4983053;28;20194;-82
2021/12/05 17:26:20;;;;;;;6.95;1.83;;;0.90;99.90;;;;;;4984422;28;20270;-82
2021/12/05 17:28:50;;;;;;;20.60;13.43;;;0.90;99.90;;;;;;4985255;28;20197;-82
2021/12/05 17:31:28;;;;;;;21.55;18.23;;;0.90;99.90;;;;;;4987006;28;20182;-82
2021/12/05 17:33:57;;;;;;;19.58;15.60;;;0.90;99.90;;;;;;4984973;28;20199;-82
2021/12/05 17:36:30;;;;;;;12.10;8.68;;;0.80;99.90;;;;;;4985981;28;20194;-81
2021/12/05 17:39:01;;;;;;;9.23;4.13;;;0.80;99.90;;;;;;4982127;28;20203;-81
2021/12/05 17:41:30;;;;;;;4.75;3.35;;;0.80;99.90;;;;;;4981854;28;20197;-81
2021/12/05 17:43:59;;;;;;;2.33;1.70;;;0.90;99.90;;;;;;4982269;28;20257;-81
2021/12/05 17:46:25;;;;;;;1.85;1.08;;;0.90;99.90;;;;;;4984589;28;20185;-81
2021/12/05 17:48:51;;;;;;;3.57;1.80;;;0.80;99.90;;;;;;4982224;28;20237;-81
2021/12/05 17:51:17;;;;;;;7.18;6.45;;;0.70;99.90;;;;;;4982812;28;20447;-82
2021/12/05 17:53:44;;;;;;;4.43;4.03;;;0.70;99.90;;;;;;4982353;28;20218;-81
2021/12/05 17:56:17;;;;;;;4.75;4.32;;;0.70;99.90;;;;;;4980326;28;20667;-81
2021/12/05 18:03:55;;;;;;;8.13;3.75;;;0.70;99.90;;;;;;4985276;28;20210;-81
2021/12/05 18:06:22;;;;;;;3.55;2.88;;;0.80;99.90;;;;;;4986060;28;20201;-81
2021/12/05 18:08:49;;;;;;;25.13;3.83;;;0.90;99.90;;;;;;4985367;28;20186;-81
2021/12/05 18:11:22;;;;;;;1.48;0.85;;;0.80;99.90;;;;;;4969909;28;20692;-81
2021/12/05 18:13:52;;;;;;;4.10;2.30;;;0.60;99.90;;;;;;4983026;28;20278;-81